createdAt,value
2022-08-07T00:01:43.240Z,101967.94
2022-08-07T00:06:33.057Z,101983.88
2022-08-07T00:11:35.977Z,101970.91
2022-08-07T00:16:50.548Z,101965.91
2022-08-07T00:21:57.155Z,101970.41
2022-08-07T00:27:07.354Z,101956.09
2022-08-07T00:32:09.980Z,101960.72
2022-08-07T00:37:16.471Z,101949.84
2022-08-07T00:42:18.507Z,101943.41
2022-08-07T00:48:18.260Z,101949.28
2022-08-07T00:52:49.612Z,101944.25
2022-08-07T00:57:55.872Z,101941.78
2022-08-07T01:02:57.968Z,101936.50
2022-08-07T01:08:00.055Z,101938.34
2022-08-07T01:13:02.753Z,101935.63
2022-08-07T01:18:05.536Z,101928.50
2022-08-07T01:23:13.225Z,101926.50
2022-08-07T01:28:15.483Z,101923.63
2022-08-07T01:33:17.730Z,101916.88
2022-08-07T01:38:25.249Z,101923.34
2022-08-07T01:43:34.708Z,101919.88
2022-08-07T01:48:46.837Z,101916.22
2022-08-07T01:54:11.679Z,101921.19
2022-08-07T01:59:21.466Z,101914.09
2022-08-07T02:04:31.187Z,101916.34
2022-08-07T02:09:54.764Z,101916.56
2022-08-07T02:14:57.009Z,101905.56
2022-08-07T02:20:07.570Z,101905.56
2022-08-07T02:25:21.409Z,101899.03
2022-08-07T02:30:44.407Z,101888.44
2022-08-07T02:36:28.341Z,101890.19
2022-08-07T02:41:12.749Z,101892.66
2022-08-07T02:46:26.343Z,101892.56
2022-08-07T02:51:42.938Z,101888.13
2022-08-07T02:56:56.502Z,101885.97
2022-08-07T03:02:02.156Z,101895.13
2022-08-07T03:07:10.437Z,101891.22
2022-08-07T03:12:22.579Z,101888.84
2022-08-07T03:17:36.298Z,101884.91
2022-08-07T03:22:55.947Z,101881.34
2022-08-07T03:28:09.546Z,101879.50
2022-08-07T03:33:23.298Z,101877.78
2022-08-07T03:38:29.543Z,101878.53
2022-08-07T03:43:33.048Z,101878.53
2022-08-07T03:48:45.574Z,101882.28
2022-08-07T03:54:33.055Z,101887.81
2022-08-07T03:59:22.225Z,101889.13
2022-08-07T04:04:24.723Z,101887.03
2022-08-07T04:09:38.089Z,101888.84
2022-08-07T04:14:49.133Z,101881.75
2022-08-07T04:19:54.085Z,101878.38
2022-08-07T04:24:58.000Z,101878.97
2022-08-07T04:30:01.944Z,101882.69
2022-08-07T04:35:07.184Z,101883.00
2022-08-07T04:40:13.409Z,101880.69
2022-08-07T04:45:20.974Z,101886.28
2022-08-07T04:50:52.182Z,101889.72
2022-08-07T04:58:11.333Z,101894.44
2022-08-07T05:02:16.647Z,101890.13
2022-08-07T05:07:48.539Z,101898.09
2022-08-07T05:14:52.590Z,101904.03
2022-08-07T05:18:41.622Z,101904.91
2022-08-07T05:23:50.395Z,101911.25
2022-08-07T05:28:58.228Z,101912.97
2022-08-07T05:34:04.620Z,101914.03
2022-08-07T05:40:06.571Z,101908.84
2022-08-07T05:44:31.043Z,101922.59
2022-08-07T05:49:41.014Z,101921.53
2022-08-07T05:54:44.389Z,101931.34
2022-08-07T05:59:58.171Z,101932.66
2022-08-07T06:05:05.623Z,101935.13
2022-08-07T06:10:11.361Z,101943.75
2022-08-07T06:15:19.967Z,101934.59
2022-08-07T06:20:32.096Z,101935.66
2022-08-07T06:25:53.979Z,101943.44
2022-08-07T06:30:58.330Z,101937.28
2022-08-07T06:36:06.495Z,101932.66
2022-08-07T06:42:00.455Z,101926.44
2022-08-07T06:47:10.531Z,101929.13
2022-08-07T06:52:18.353Z,101927.28
2022-08-07T06:57:43.492Z,101931.81
2022-08-07T07:02:54.092Z,101920.28
2022-08-07T07:08:06.780Z,101929.91
2022-08-07T07:13:16.748Z,101922.41
2022-08-07T07:18:48.100Z,101928.50
2022-08-07T07:24:09.307Z,101929.44
2022-08-07T07:29:56.147Z,101925.97
2022-08-07T07:34:41.238Z,101923.41
2022-08-07T07:39:54.691Z,101917.44
2022-08-07T07:44:59.948Z,101922.41
2022-08-07T07:50:33.278Z,101917.97
2022-08-07T07:55:27.471Z,101911.28
2022-08-07T08:00:42.283Z,101908.56
2022-08-07T08:05:54.966Z,101907.44
2022-08-07T08:10:58.260Z,101909.16
2022-08-07T08:16:02.568Z,101913.88
2022-08-07T08:21:07.554Z,101907.63
2022-08-07T08:26:31.027Z,101908.38
2022-08-07T08:32:17.238Z,101911.84
2022-08-07T08:37:00.105Z,101901.56
2022-08-07T08:42:11.820Z,101904.25
2022-08-07T08:47:25.046Z,101888.13
2022-08-07T08:52:35.960Z,101878.59
2022-08-07T08:57:42.850Z,101883.47
2022-08-07T09:03:18.928Z,101880.53
2022-08-07T09:08:55.703Z,101877.63
2022-08-07T09:14:36.787Z,101873.78
2022-08-07T09:20:00.920Z,101876.78
2022-08-07T09:25:17.317Z,101879.38
2022-08-07T09:30:20.651Z,101874.97
2022-08-07T09:36:04.341Z,101874.69
2022-08-07T09:41:08.051Z,101861.78
2022-08-07T09:47:50.519Z,101868.47
2022-08-07T09:52:34.908Z,101851.47
2022-08-07T09:58:14.055Z,101851.75
2022-08-07T10:04:05.921Z,101845.34
2022-08-07T10:10:00.782Z,101848.25
2022-08-07T10:15:19.267Z,101846.31
2022-08-07T10:20:56.254Z,101840.72
2022-08-07T10:26:04.495Z,101829.94
2022-08-07T10:31:28.223Z,101821.22
2022-08-07T10:36:56.999Z,101827.94
2022-08-07T10:42:21.037Z,101816.00
2022-08-07T10:47:53.720Z,101819.22
2022-08-07T10:53:21.389Z,101813.41
2022-08-07T10:58:36.690Z,101810.72
2022-08-07T11:04:23.276Z,101799.72
2022-08-07T11:10:09.746Z,101792.00
2022-08-07T11:15:00.457Z,101789.13
2022-08-07T11:20:16.369Z,101775.56
2022-08-07T11:25:47.963Z,101769.59
2022-08-07T11:31:01.206Z,101772.72
2022-08-07T11:36:13.585Z,101762.94
2022-08-07T11:41:31.064Z,101757.25
2022-08-07T11:46:49.191Z,101751.19
2022-08-07T11:52:20.626Z,101750.84
2022-08-07T11:57:58.482Z,101754.63
2022-08-07T12:03:42.148Z,101754.03
2022-08-07T12:09:41.151Z,101757.47
2022-08-07T12:14:55.864Z,101738.06
2022-08-07T12:20:30.648Z,101736.78
2022-08-07T12:26:05.639Z,101746.47
2022-08-07T12:31:53.097Z,101732.34
2022-08-07T12:36:59.773Z,101731.81
2022-08-07T12:42:03.228Z,101726.09
2022-08-07T12:47:21.517Z,101727.28
2022-08-07T12:52:34.883Z,101711.88
2022-08-07T12:58:01.328Z,101714.16
2022-08-07T13:03:59.303Z,101709.19
2022-08-07T13:09:12.605Z,101712.97
2022-08-07T13:14:58.051Z,101702.22
2022-08-07T13:20:21.724Z,101699.59
2022-08-07T13:25:45.910Z,101702.09
2022-08-07T13:31:01.719Z,101689.69
2022-08-07T13:36:30.684Z,101686.16
2022-08-07T13:41:42.523Z,101681.19
2022-08-07T13:46:54.534Z,101671.94
2022-08-07T13:52:22.598Z,101675.06
2022-08-07T13:57:26.507Z,101673.03
2022-08-07T14:02:51.073Z,101674.97
2022-08-07T14:08:01.455Z,101663.69
2022-08-07T14:13:05.975Z,101661.94
2022-08-07T14:18:28.852Z,101662.59
2022-08-07T14:24:00.334Z,101663.22
2022-08-07T14:29:08.517Z,101664.81
2022-08-07T14:34:29.311Z,101658.16
2022-08-07T14:40:16.078Z,101648.16
2022-08-07T14:45:22.048Z,101648.16
2022-08-07T14:50:26.873Z,101640.06
2022-08-07T14:55:34.351Z,101632.66
2022-08-07T15:00:59.100Z,101635.59
2022-08-07T15:06:04.312Z,101632.88
2022-08-07T15:11:15.064Z,101635.69
2022-08-07T15:16:30.991Z,101633.50
2022-08-07T15:27:12.702Z,101632.00
2022-08-07T15:32:38.931Z,101631.88
2022-08-07T15:43:53.605Z,101618.41
2022-08-07T15:49:12.222Z,101614.31
2022-08-07T15:54:12.370Z,101625.81
2022-08-07T15:59:38.993Z,101615.75
2022-08-07T16:04:44.052Z,101609.84
2022-08-07T16:09:57.297Z,101606.59
2022-08-07T16:15:57.394Z,101607.78
2022-08-07T16:21:43.914Z,101600.25
2022-08-07T16:27:03.374Z,101593.88
2022-08-07T16:32:34.972Z,101599.94
2022-08-07T16:38:06.869Z,101609.28
2022-08-07T16:43:14.305Z,101599.59
2022-08-07T16:48:58.384Z,101596.28
2022-08-07T16:54:32.985Z,101601.22
2022-08-07T17:00:06.195Z,101596.69
2022-08-07T17:06:19.698Z,101600.38
2022-08-07T17:11:17.160Z,101605.09
2022-08-07T17:16:26.434Z,101609.84
2022-08-07T17:21:50.773Z,101603.81
2022-08-07T17:27:04.785Z,101600.69
2022-08-07T17:32:31.222Z,101604.91
2022-08-07T17:38:33.376Z,101600.03
2022-08-07T17:44:02.295Z,101599.25
2022-08-07T17:49:23.369Z,101604.66
2022-08-07T17:54:53.225Z,101605.75
2022-08-07T18:00:02.158Z,101610.69
2022-08-07T18:05:21.245Z,101613.03
2022-08-07T18:10:34.181Z,101614.34
2022-08-07T18:16:00.309Z,101609.38
2022-08-07T18:21:42.212Z,101614.63
2022-08-07T18:26:40.474Z,101614.88
2022-08-07T18:31:59.728Z,101620.34
2022-08-07T18:38:55.108Z,101625.75
2022-08-07T18:43:11.572Z,101622.94
2022-08-07T18:50:05.245Z,101623.59
2022-08-07T18:54:30.574Z,101633.63
2022-08-07T18:59:47.341Z,101632.13
2022-08-07T19:06:02.121Z,101640.59
2022-08-07T19:10:55.560Z,101642.47
2022-08-07T19:17:05.041Z,101645.66
2022-08-07T19:22:04.879Z,101649.22
2022-08-07T19:28:57.820Z,101654.41
2022-08-07T19:32:44.575Z,101660.75
2022-08-07T19:37:55.441Z,101664.41
2022-08-07T19:42:59.298Z,101666.69
2022-08-07T19:48:02.258Z,101683.28
2022-08-07T19:54:44.238Z,101683.38
2022-08-07T19:58:35.300Z,101686.16
2022-08-07T20:03:38.189Z,101693.19
2022-08-07T20:08:50.250Z,101698.56
2022-08-07T20:13:55.530Z,101697.91
2022-08-07T20:18:59.278Z,101691.69
2022-08-07T20:24:10.751Z,101695.75
2022-08-07T20:29:16.947Z,101695.56
2022-08-07T20:34:50.663Z,101701.38
2022-08-07T20:40:03.379Z,101699.97
2022-08-07T20:45:32.803Z,101701.13
2022-08-07T20:50:32.947Z,101706.09
2022-08-07T20:55:37.188Z,101704.25
2022-08-07T21:00:46.511Z,101707.38
2022-08-07T21:06:21.467Z,101712.88
2022-08-07T21:11:46.135Z,101716.34
2022-08-07T21:18:02.189Z,101719.47
2022-08-07T21:22:28.614Z,101707.81
2022-08-07T21:27:47.407Z,101713.41
2022-08-07T21:32:52.543Z,101720.22
2022-08-07T21:38:07.440Z,101723.66
2022-08-07T21:43:14.270Z,101729.03
2022-08-07T21:48:26.957Z,101732.69
2022-08-07T21:53:52.745Z,101734.63
2022-08-07T21:59:07.989Z,101742.06
2022-08-07T22:04:20.218Z,101739.59
2022-08-07T22:09:25.796Z,101733.69
2022-08-07T22:14:36.505Z,101734.84
2022-08-07T22:20:00.317Z,101751.63
2022-08-07T22:25:26.470Z,101742.69
2022-08-07T22:30:40.071Z,101753.69
2022-08-07T22:35:51.324Z,101750.88
2022-08-07T22:41:00.088Z,101765.53
2022-08-07T22:46:47.052Z,101762.09
2022-08-07T22:51:52.205Z,101758.31
2022-08-07T22:57:29.553Z,101769.28
2022-08-07T23:02:41.646Z,101773.28
2022-08-07T23:08:30.538Z,101769.59
2022-08-07T23:13:49.105Z,101776.59
2022-08-07T23:19:19.477Z,101764.03
2022-08-07T23:25:08.975Z,101775.97
2022-08-07T23:30:39.252Z,101771.63
2022-08-07T23:35:52.466Z,101769.84
2022-08-07T23:41:33.523Z,101772.63
2022-08-07T23:47:13.018Z,101770.03
2022-08-07T23:53:01.377Z,101770.69
2022-08-07T23:58:21.288Z,101766.16
